Time;durP1;ratioP1;P1;durP2;ratioP2;P2;SDS_P1;SDS_P2;PMS_P1;PMS_P2;Temp;Humidity;BMP_temperature;BMP_pressure;BME280_temperature;BME280_humidity;BME280_pressure;Samples;Min_cycle;Max_cycle;Signal;HPM_P1;HPM_P2
2021/11/26 00:02:05;;;;;;;10.30;3.47;;;2.70;94.20;;;;;;5044097;28;20243;-80
2021/11/26 00:04:31;;;;;;;6.13;3.93;;;2.70;94.10;;;;;;5054744;28;20269;-80
2021/11/26 00:06:57;;;;;;;7.37;4.57;;;2.70;94.00;;;;;;5055070;28;20209;-80
2021/11/26 00:09:23;;;;;;;8.10;4.60;;;2.60;94.20;;;;;;5048659;28;20182;-80
2021/11/26 00:11:49;;;;;;;3.47;3.13;;;2.60;94.30;;;;;;5046378;28;20186;-80
2021/11/26 00:14:22;;;;;;;10.80;5.10;;;2.60;94.50;;;;;;5053478;28;20179;-81
2021/11/26 00:16:54;;;;;;;4.63;4.23;;;2.60;94.60;;;;;;5048538;28;20206;-79
2021/11/26 00:19:20;;;;;;;8.27;4.03;;;2.70;94.60;;;;;;5051294;28;20558;-79
2021/11/26 00:21:45;;;;;;;7.53;5.23;;;2.70;94.60;;;;;;5048797;28;20213;-81
2021/11/26 00:24:13;;;;;;;4.87;4.33;;;2.70;94.60;;;;;;5048343;28;20642;-80
2021/11/26 00:26:40;;;;;;;5.07;3.90;;;2.70;94.50;;;;;;5048758;28;20261;-81
2021/11/26 00:29:06;;;;;;;5.03;3.57;;;2.70;94.50;;;;;;5048112;28;20179;-80
2021/11/26 00:31:32;;;;;;;7.87;3.80;;;2.80;94.50;;;;;;5047389;28;20179;-80
2021/11/26 00:33:58;;;;;;;4.20;3.90;;;2.80;94.50;;;;;;5046839;28;20700;-80
2021/11/26 00:36:23;;;;;;;4.33;3.47;;;2.80;94.50;;;;;;5050799;28;20252;-81
2021/11/26 00:38:49;;;;;;;4.13;3.43;;;2.90;94.40;;;;;;5049620;28;20305;-80
2021/11/26 00:41:15;;;;;;;4.63;4.10;;;2.90;94.40;;;;;;5049608;28;20605;-80
2021/11/26 00:43:43;;;;;;;7.93;4.07;;;2.90;94.30;;;;;;5056118;28;20730;-80
2021/11/26 00:46:10;;;;;;;5.00;4.30;;;2.90;94.20;;;;;;5052759;28;20256;-81
2021/11/26 00:48:35;;;;;;;13.13;6.70;;;3.00;94.10;;;;;;5049407;28;20188;-80
2021/11/26 00:51:01;;;;;;;7.23;3.97;;;3.00;94.20;;;;;;5050927;28;20605;-81
2021/11/26 00:53:27;;;;;;;8.17;4.73;;;3.00;94.30;;;;;;5047280;28;20242;-81
2021/11/26 00:55:53;;;;;;;9.83;5.77;;;3.00;94.20;;;;;;5050201;28;20655;-80
2021/11/26 00:58:19;;;;;;;16.20;6.20;;;3.10;94.20;;;;;;5048868;28;20199;-80
2021/11/26 01:00:45;;;;;;;9.77;7.07;;;3.10;94.10;;;;;;5051273;28;20210;-80
2021/11/26 01:03:10;;;;;;;8.63;6.13;;;3.10;94.00;;;;;;5051814;28;20187;-80
2021/11/26 01:05:36;;;;;;;8.03;6.13;;;3.20;93.90;;;;;;5056490;28;20718;-80
2021/11/26 01:08:02;;;;;;;12.40;7.63;;;3.20;94.00;;;;;;5056062;28;20225;-80
2021/11/26 01:10:28;;;;;;;13.27;7.17;;;3.20;93.90;;;;;;5044755;28;20643;-80
2021/11/26 01:12:54;;;;;;;10.17;6.43;;;3.20;94.00;;;;;;5050274;28;20178;-80
2021/11/26 01:15:26;;;;;;;13.53;6.80;;;3.30;94.00;;;;;;5047837;28;20172;-81
2021/11/26 01:17:52;;;;;;;6.40;5.80;;;3.40;94.00;;;;;;5043713;28;20180;-80
2021/11/26 01:20:21;;;;;;;6.83;5.40;;;3.40;93.90;;;;;;5050837;28;20219;-81
2021/11/26 01:22:48;;;;;;;9.83;6.03;;;3.40;93.90;;;;;;5052575;28;20194;-81
2021/11/26 01:25:15;;;;;;;8.10;6.27;;;3.50;94.10;;;;;;5052730;28;20660;-81
2021/11/26 01:27:41;;;;;;;12.20;6.77;;;3.50;93.90;;;;;;5048467;28;20187;-80
2021/11/26 01:30:23;;;;;;;11.40;7.63;;;3.50;93.90;;;;;;5045099;28;20211;-80
2021/11/26 01:32:50;;;;;;;9.20;6.40;;;3.50;93.90;;;;;;5048635;28;20179;-80
2021/11/26 01:35:16;;;;;;;10.17;6.57;;;3.60;93.90;;;;;;5051234;28;20259;-80
2021/11/26 01:37:42;;;;;;;13.67;6.67;;;3.60;93.80;;;;;;5046362;28;20270;-81
2021/11/26 01:40:08;;;;;;;10.27;6.33;;;3.70;93.80;;;;;;5049678;28;20269;-81
2021/11/26 01:42:34;;;;;;;8.23;6.03;;;3.70;93.60;;;;;;5055533;28;20179;-81
2021/11/26 01:45:00;;;;;;;11.73;7.00;;;3.70;93.60;;;;;;5057154;28;20183;-81
2021/11/26 01:47:27;;;;;;;7.77;5.80;;;3.80;93.60;;;;;;5053634;28;20189;-81
2021/11/26 01:49:53;;;;;;;9.60;5.63;;;3.80;93.50;;;;;;5058935;28;20266;-81
2021/11/26 01:52:18;;;;;;;8.23;6.30;;;3.80;93.40;;;;;;5056645;28;20290;-81
2021/11/26 01:54:44;;;;;;;9.30;6.47;;;3.80;93.20;;;;;;5052315;28;20199;-81
2021/11/26 01:57:10;;;;;;;9.93;7.03;;;3.80;93.20;;;;;;5055294;28;20238;-81
2021/11/26 01:59:35;;;;;;;8.53;5.53;;;3.80;93.30;;;;;;5052446;28;20689;-80
2021/11/26 02:02:01;;;;;;;11.33;6.73;;;3.80;93.40;;;;;;5057547;28;20320;-81
2021/11/26 02:04:27;;;;;;;10.53;6.47;;;3.80;93.40;;;;;;5054276;28;20186;-81
2021/11/26 02:06:53;;;;;;;12.07;6.63;;;3.90;93.30;;;;;;5055763;28;20179;-80
2021/11/26 02:09:18;;;;;;;10.83;6.33;;;3.90;93.30;;;;;;5051262;28;20361;-81
2021/11/26 02:11:44;;;;;;;10.07;6.43;;;3.90;93.30;;;;;;5052260;28;20187;-81
2021/11/26 02:14:11;;;;;;;8.13;5.57;;;3.90;93.30;;;;;;5053485;28;20673;-80
2021/11/26 02:16:56;;;;;;;9.17;5.80;;;4.00;93.30;;;;;;5051337;28;20702;-81
2021/11/26 02:19:24;;;;;;;8.97;6.00;;;4.00;93.10;;;;;;5056175;28;20175;-80
2021/11/26 02:21:50;;;;;;;7.53;5.63;;;4.00;93.30;;;;;;5056319;28;20245;-80
2021/11/26 02:24:16;;;;;;;9.20;5.60;;;4.00;93.30;;;;;;5055205;28;20179;-81
2021/11/26 02:26:44;;;;;;;9.73;5.17;;;4.10;93.20;;;;;;5051799;28;20184;-78
2021/11/26 02:29:12;;;;;;;7.90;5.57;;;4.10;93.10;;;;;;5054695;28;20181;-79
2021/11/26 02:31:39;;;;;;;6.80;5.20;;;4.20;92.90;;;;;;5059433;28;20576;-80
2021/11/26 02:34:06;;;;;;;6.77;5.00;;;4.20;92.90;;;;;;5054938;28;20266;-79
2021/11/26 02:36:32;;;;;;;8.27;5.47;;;4.20;92.80;;;;;;5054080;28;20187;-79
2021/11/26 02:38:58;;;;;;;6.50;4.90;;;4.20;92.70;;;;;;5058023;28;20187;-79
2021/11/26 02:41:23;;;;;;;7.10;5.53;;;4.30;92.40;;;;;;5049390;28;20717;-79
2021/11/26 02:43:50;;;;;;;9.10;5.23;;;4.20;92.40;;;;;;5060478;28;20183;-79
2021/11/26 02:46:16;;;;;;;9.33;5.57;;;4.30;92.20;;;;;;5042995;28;20176;-79
2021/11/26 02:48:41;;;;;;;10.17;5.40;;;4.20;92.20;;;;;;5048143;28;20670;-78
2021/11/26 02:51:07;;;;;;;6.80;5.30;;;4.20;92.20;;;;;;5053542;28;20191;-78
2021/11/26 02:53:33;;;;;;;9.10;5.87;;;4.20;92.20;;;;;;5055059;28;20187;-79
2021/11/26 02:55:58;;;;;;;7.63;5.07;;;4.10;92.30;;;;;;5053893;28;20189;-78
2021/11/26 02:58:24;;;;;;;9.43;5.73;;;4.10;92.30;;;;;;5049374;28;20198;-78
2021/11/26 03:00:54;;;;;;;8.13;5.70;;;4.10;92.40;;;;;;5046238;28;20261;-79
2021/11/26 03:03:20;;;;;;;10.37;5.80;;;4.10;92.40;;;;;;5048890;28;20172;-80
2021/11/26 03:05:46;;;;;;;9.57;5.17;;;4.10;92.40;;;;;;5049252;28;20184;-80
2021/11/26 03:08:12;;;;;;;9.30;5.40;;;4.10;92.40;;;;;;5051003;28;20190;-79
2021/11/26 03:10:39;;;;;;;9.37;5.20;;;4.00;92.40;;;;;;5052123;28;20187;-79
2021/11/26 03:13:07;;;;;;;8.90;5.20;;;4.00;92.40;;;;;;5047383;28;20176;-81
2021/11/26 03:15:35;;;;;;;9.43;5.03;;;4.00;92.40;;;;;;5050958;28;20243;-79
2021/11/26 03:18:01;;;;;;;9.07;5.40;;;4.00;92.40;;;;;;5052217;28;20255;-80
2021/11/26 03:20:28;;;;;;;9.43;5.87;;;4.00;92.50;;;;;;5048491;28;20280;-80
2021/11/26 03:22:55;;;;;;;7.20;5.80;;;4.00;92.50;;;;;;5052298;28;20191;-80
2021/11/26 03:25:21;;;;;;;13.47;5.80;;;4.00;92.50;;;;;;5049109;28;20661;-82
2021/11/26 03:27:47;;;;;;;12.67;5.97;;;3.90;92.60;;;;;;5049591;28;20187;-80
2021/11/26 03:30:16;;;;;;;5.97;4.93;;;4.00;92.70;;;;;;5043511;28;20184;-78
2021/11/26 03:32:43;;;;;;;10.03;5.07;;;4.00;92.70;;;;;;5045175;28;20183;-80
2021/11/26 03:35:09;;;;;;;7.50;5.03;;;4.10;92.70;;;;;;5047226;28;20190;-80
2021/11/26 03:37:35;;;;;;;9.57;5.57;;;4.10;92.60;;;;;;5053103;28;20183;-79
2021/11/26 03:40:04;;;;;;;5.13;4.67;;;4.10;92.60;;;;;;5046305;28;20182;-78
2021/11/26 03:42:30;;;;;;;10.57;5.07;;;4.10;92.50;;;;;;5054726;28;20190;-79
2021/11/26 03:44:55;;;;;;;11.73;5.97;;;4.10;92.60;;;;;;5052366;28;20574;-79
2021/11/26 03:47:21;;;;;;;9.17;5.83;;;4.00;92.70;;;;;;5050260;28;20176;-80
2021/11/26 03:49:47;;;;;;;7.57;4.80;;;4.00;92.90;;;;;;5047202;28;20999;-78
2021/11/26 03:52:12;;;;;;;8.63;5.57;;;4.00;92.90;;;;;;5046659;28;20203;-80
2021/11/26 03:54:40;;;;;;;9.30;5.70;;;3.90;93.00;;;;;;5049715;28;20179;-79
2021/11/26 03:57:06;;;;;;;8.27;5.67;;;3.90;93.00;;;;;;5050133;28;20187;-79
2021/11/26 03:59:32;;;;;;;6.73;5.13;;;3.90;93.20;;;;;;5049331;28;20230;-79
2021/11/26 04:01:58;;;;;;;7.80;5.00;;;3.80;93.50;;;;;;5052787;28;20269;-80
2021/11/26 04:04:24;;;;;;;7.20;5.30;;;3.80;93.50;;;;;;5048660;28;20202;-80
2021/11/26 04:06:49;;;;;;;9.83;6.07;;;3.80;93.50;;;;;;5051480;28;20831;-80
2021/11/26 04:09:15;;;;;;;9.37;5.00;;;3.80;93.40;;;;;;5044943;28;20196;-79
2021/11/26 04:11:41;;;;;;;5.67;4.70;;;3.80;93.30;;;;;;5053906;28;21021;-79
2021/11/26 04:14:06;;;;;;;8.27;5.17;;;3.70;93.30;;;;;;5042687;28;20191;-80
2021/11/26 04:16:33;;;;;;;6.70;4.87;;;3.70;93.40;;;;;;5047341;28;20218;-80
2021/11/26 04:18:58;;;;;;;7.83;5.00;;;3.70;93.70;;;;;;5046791;28;20179;-80
2021/11/26 04:21:24;;;;;;;9.87;5.70;;;3.70;93.70;;;;;;5047480;28;20706;-80
2021/11/26 04:23:50;;;;;;;8.60;5.13;;;3.70;93.90;;;;;;5051359;28;20192;-80
2021/11/26 04:26:15;;;;;;;6.57;5.00;;;3.70;94.10;;;;;;5051093;28;20170;-79
2021/11/26 04:28:41;;;;;;;6.37;4.80;;;3.70;94.40;;;;;;5045606;28;20191;-80
2021/11/26 04:31:07;;;;;;;6.23;4.87;;;3.70;94.70;;;;;;5051915;28;20198;-79
2021/11/26 04:33:33;;;;;;;5.53;4.77;;;3.70;94.60;;;;;;5052172;28;20688;-80
2021/11/26 04:36:00;;;;;;;9.43;5.30;;;3.70;94.90;;;;;;5057182;28;20269;-79
2021/11/26 04:38:26;;;;;;;10.23;4.63;;;3.70;95.00;;;;;;5052089;28;20187;-79
2021/11/26 04:40:52;;;;;;;8.70;5.50;;;3.70;95.00;;;;;;5052704;28;20713;-80
2021/11/26 04:43:18;;;;;;;7.60;5.47;;;3.80;95.00;;;;;;5053440;28;20278;-79
2021/11/26 04:45:43;;;;;;;6.83;5.43;;;3.80;95.00;;;;;;5055501;28;20182;-79
2021/11/26 04:48:09;;;;;;;8.87;5.33;;;3.80;94.90;;;;;;5053208;28;20206;-79
2021/11/26 04:50:35;;;;;;;7.23;5.00;;;3.90;94.90;;;;;;5055984;28;20624;-79
2021/11/26 04:53:01;;;;;;;7.73;5.00;;;3.90;95.00;;;;;;5045857;28;20184;-80
2021/11/26 04:55:26;;;;;;;6.27;5.03;;;3.90;94.80;;;;;;5051695;28;20207;-80
2021/11/26 04:57:52;;;;;;;7.93;4.87;;;4.00;94.70;;;;;;5049112;28;20195;-79
2021/11/26 05:00:19;;;;;;;8.90;5.90;;;4.00;94.70;;;;;;5047777;28;20175;-79
2021/11/26 05:02:46;;;;;;;12.70;6.23;;;4.10;94.50;;;;;;5048243;28;20597;-80
2021/11/26 05:05:12;;;;;;;8.30;5.47;;;4.10;94.40;;;;;;5055583;28;20186;-79
2021/11/26 05:07:38;;;;;;;6.83;4.80;;;4.20;94.30;;;;;;5050893;28;20187;-79
2021/11/26 05:10:05;;;;;;;7.40;5.00;;;4.20;94.20;;;;;;5043824;28;20182;-78
2021/11/26 05:12:35;;;;;;;8.37;4.77;;;4.20;94.10;;;;;;5046265;28;20191;-79
2021/11/26 05:15:01;;;;;;;8.63;5.33;;;4.30;94.00;;;;;;5050697;28;20195;-80
2021/11/26 05:17:27;;;;;;;9.30;5.17;;;4.30;93.90;;;;;;5043391;28;20191;-79
2021/11/26 05:19:52;;;;;;;6.47;4.77;;;4.40;93.90;;;;;;5052128;28;20184;-78
2021/11/26 05:22:18;;;;;;;9.50;6.27;;;4.40;93.80;;;;;;5050754;28;20215;-80
2021/11/26 05:24:44;;;;;;;8.67;5.60;;;4.40;93.70;;;;;;5051428;28;20179;-80
2021/11/26 05:27:09;;;;;;;7.63;5.27;;;4.40;93.60;;;;;;5048524;28;20188;-81
2021/11/26 05:29:35;;;;;;;8.67;5.47;;;4.50;93.50;;;;;;5049201;28;20175;-81
2021/11/26 05:32:01;;;;;;;8.43;5.63;;;4.50;93.30;;;;;;5042215;28;20196;-80
2021/11/26 05:34:26;;;;;;;13.30;5.30;;;4.50;93.20;;;;;;5051964;28;20229;-80
2021/11/26 05:36:52;;;;;;;7.30;4.93;;;4.50;93.10;;;;;;5052837;28;20185;-78
2021/11/26 05:39:18;;;;;;;9.27;5.73;;;4.60;93.10;;;;;;5045748;28;21183;-78
2021/11/26 05:41:43;;;;;;;11.07;6.57;;;4.60;93.00;;;;;;5044963;28;20223;-78
2021/11/26 05:44:09;;;;;;;7.27;4.77;;;4.60;92.90;;;;;;5042282;28;20207;-75
2021/11/26 05:46:35;;;;;;;7.27;5.07;;;4.60;92.80;;;;;;5042349;28;20190;-77
2021/11/26 05:49:01;;;;;;;8.80;5.90;;;4.60;92.90;;;;;;5048803;28;20176;-78
2021/11/26 05:51:26;;;;;;;7.20;5.23;;;4.60;92.80;;;;;;5046533;28;20298;-78
2021/11/26 05:53:52;;;;;;;7.87;4.77;;;4.70;92.70;;;;;;5049720;28;20559;-79
2021/11/26 05:56:18;;;;;;;8.23;4.80;;;4.70;92.50;;;;;;5053399;28;20184;-79
2021/11/26 05:58:43;;;;;;;6.33;5.10;;;4.80;92.40;;;;;;5057670;28;20197;-79
2021/11/26 06:01:09;;;;;;;12.10;5.67;;;4.80;92.30;;;;;;5055945;28;20208;-79
2021/11/26 06:03:35;;;;;;;6.60;4.90;;;4.80;92.30;;;;;;5052050;28;20300;-79
2021/11/26 06:06:01;;;;;;;8.43;5.27;;;4.80;92.20;;;;;;5054079;28;20236;-78
2021/11/26 06:08:27;;;;;;;8.37;5.20;;;4.90;92.20;;;;;;5053533;28;21157;-78
2021/11/26 06:10:55;;;;;;;7.37;5.77;;;4.90;92.10;;;;;;5054999;28;20294;-79
2021/11/26 06:13:21;;;;;;;6.37;4.97;;;4.90;92.00;;;;;;5055909;28;20187;-79
2021/11/26 06:15:46;;;;;;;8.30;5.33;;;4.90;91.90;;;;;;5048324;28;20188;-78
2021/11/26 06:18:13;;;;;;;7.13;4.33;;;4.90;91.90;;;;;;5050631;28;20191;-80
2021/11/26 06:20:38;;;;;;;9.03;4.73;;;5.00;92.00;;;;;;5052153;28;20195;-80
2021/11/26 06:23:04;;;;;;;9.37;6.33;;;5.00;91.90;;;;;;5049247;28;20194;-80
2021/11/26 06:25:30;;;;;;;7.87;4.77;;;5.00;91.30;;;;;;5048693;28;20179;-79
2021/11/26 06:27:56;;;;;;;6.83;4.83;;;5.00;91.60;;;;;;5039095;28;20651;-76
2021/11/26 06:30:23;;;;;;;6.33;4.87;;;5.10;91.60;;;;;;5052965;28;20172;-77
2021/11/26 06:32:49;;;;;;;7.90;5.67;;;5.10;91.60;;;;;;5045442;28;20187;-78
2021/11/26 06:35:19;;;;;;;11.47;5.63;;;5.10;91.40;;;;;;5052603;28;20171;-78
2021/11/26 06:37:45;;;;;;;12.40;5.40;;;5.10;91.40;;;;;;5053032;28;20176;-77
2021/11/26 06:40:11;;;;;;;7.87;5.47;;;5.00;91.00;;;;;;5049708;28;20621;-76
2021/11/26 06:42:38;;;;;;;6.17;4.83;;;5.00;90.70;;;;;;5047024;28;20180;-76
2021/11/26 06:45:05;;;;;;;6.83;5.60;;;5.00;91.00;;;;;;5053498;28;20298;-77
2021/11/26 06:47:31;;;;;;;8.00;5.57;;;5.00;90.80;;;;;;5053568;28;20274;-76
2021/11/26 06:49:57;;;;;;;8.27;5.63;;;5.00;91.00;;;;;;5051313;28;20270;-74
2021/11/26 06:52:23;;;;;;;8.23;6.00;;;4.90;90.90;;;;;;5051192;28;20190;-76
2021/11/26 06:54:48;;;;;;;8.53;5.40;;;4.90;91.10;;;;;;5054185;28;20178;-76
2021/11/26 06:57:14;;;;;;;8.70;5.97;;;4.80;90.70;;;;;;5050342;28;20187;-76
2021/11/26 06:59:40;;;;;;;10.37;6.73;;;4.80;91.00;;;;;;5052460;28;20223;-75
2021/11/26 07:02:06;;;;;;;8.80;5.67;;;4.80;90.90;;;;;;5056203;28;20211;-76
2021/11/26 07:04:32;;;;;;;7.27;5.37;;;4.80;91.10;;;;;;5058246;28;20174;-76
2021/11/26 07:06:59;;;;;;;7.10;5.23;;;4.80;91.20;;;;;;5054719;28;20179;-76
2021/11/26 07:09:24;;;;;;;12.27;6.27;;;4.80;91.20;;;;;;5053248;28;20183;-77
2021/11/26 07:11:50;;;;;;;11.03;5.53;;;4.80;91.20;;;;;;5057703;28;20183;-76
2021/11/26 07:14:15;;;;;;;7.50;5.53;;;4.70;91.10;;;;;;5054898;28;20183;-76
2021/11/26 07:16:41;;;;;;;9.23;5.90;;;4.70;91.50;;;;;;5055029;28;20234;-76
2021/11/26 07:19:07;;;;;;;6.10;5.40;;;4.70;91.70;;;;;;5054558;28;20219;-76
2021/11/26 07:21:32;;;;;;;6.27;5.27;;;4.60;91.40;;;;;;5058964;28;20212;-76
2021/11/26 07:23:59;;;;;;;10.33;5.97;;;4.70;91.50;;;;;;5051229;28;20203;-76
2021/11/26 07:26:24;;;;;;;7.97;5.90;;;4.70;91.70;;;;;;5053086;28;20685;-76
2021/11/26 07:28:50;;;;;;;7.80;5.03;;;4.70;91.60;;;;;;5055407;28;20209;-76
2021/11/26 07:31:16;;;;;;;8.47;4.93;;;4.80;91.60;;;;;;5057917;28;20215;-75
2021/11/26 07:33:42;;;;;;;9.23;5.57;;;4.80;91.30;;;;;;5056619;28;20176;-75
2021/11/26 07:36:08;;;;;;;9.23;5.20;;;4.80;91.00;;;;;;5055099;28;20183;-75
2021/11/26 07:38:35;;;;;;;10.27;6.03;;;4.90;91.00;;;;;;5057853;28;20676;-76
2021/11/26 07:41:01;;;;;;;8.00;6.00;;;4.90;91.00;;;;;;5053040;28;20705;-75
2021/11/26 07:43:27;;;;;;;7.87;5.47;;;4.90;90.50;;;;;;5056585;28;20646;-77
2021/11/26 07:45:53;;;;;;;6.63;5.03;;;5.00;90.60;;;;;;5056709;28;20194;-75
2021/11/26 07:48:18;;;;;;;12.27;6.27;;;5.00;90.70;;;;;;5053218;28;20182;-75
2021/11/26 07:50:45;;;;;;;11.43;6.23;;;5.00;90.50;;;;;;5054273;28;20238;-75
2021/11/26 07:53:10;;;;;;;7.27;5.70;;;5.10;90.60;;;;;;5049796;28;20256;-76
2021/11/26 07:55:36;;;;;;;8.37;5.10;;;5.10;90.70;;;;;;5057125;28;20198;-75
2021/11/26 07:58:04;;;;;;;6.43;5.30;;;5.10;90.20;;;;;;5055510;28;20204;-77
2021/11/26 08:00:30;;;;;;;7.17;5.90;;;5.10;89.90;;;;;;5050011;28;20259;-76
2021/11/26 08:02:58;;;;;;;8.20;6.23;;;5.10;90.30;;;;;;5050446;28;20767;-76
2021/11/26 08:05:23;;;;;;;9.83;6.47;;;5.10;90.00;;;;;;5047977;28;20175;-76
2021/11/26 08:07:51;;;;;;;8.00;6.07;;;5.20;90.10;;;;;;5054573;28;20668;-76
2021/11/26 08:10:17;;;;;;;8.60;6.33;;;5.10;89.80;;;;;;5055273;28;20182;-75
2021/11/26 08:12:43;;;;;;;7.50;5.50;;;5.10;89.90;;;;;;5051098;28;20266;-75
2021/11/26 08:15:11;;;;;;;8.80;6.83;;;5.20;89.60;;;;;;5050004;28;20172;-75
2021/11/26 08:17:36;;;;;;;9.70;6.07;;;5.20;89.90;;;;;;5057965;28;20175;-76
2021/11/26 08:20:04;;;;;;;8.13;5.50;;;5.10;89.30;;;;;;5055086;28;20604;-74
2021/11/26 08:22:29;;;;;;;7.40;6.10;;;5.00;89.30;;;;;;5052079;28;20211;-75
2021/11/26 08:24:55;;;;;;;8.10;5.50;;;5.00;89.80;;;;;;5048940;28;20179;-75
2021/11/26 08:27:21;;;;;;;11.90;6.20;;;5.10;89.70;;;;;;5051907;28;20179;-75
2021/11/26 08:29:47;;;;;;;9.57;5.80;;;5.20;89.50;;;;;;5056258;28;20179;-75
2021/11/26 08:32:12;;;;;;;8.57;5.40;;;5.20;89.70;;;;;;5056004;28;20206;-75
2021/11/26 08:34:38;;;;;;;8.67;6.60;;;5.30;89.50;;;;;;5056458;28;20217;-76
2021/11/26 08:37:04;;;;;;;6.00;5.40;;;5.30;89.40;;;;;;5058639;28;20179;-76
2021/11/26 08:39:29;;;;;;;7.50;5.73;;;5.40;89.10;;;;;;5048770;28;20207;-76
2021/11/26 08:41:55;;;;;;;9.70;6.70;;;5.40;89.20;;;;;;5057270;28;20218;-76
2021/11/26 08:44:21;;;;;;;8.23;5.83;;;5.30;89.30;;;;;;5053263;28;20175;-76
2021/11/26 08:46:47;;;;;;;6.10;5.43;;;5.30;89.20;;;;;;5054403;28;21476;-77
2021/11/26 08:49:13;;;;;;;7.10;6.03;;;5.30;89.20;;;;;;5053470;28;20182;-76
2021/11/26 08:51:40;;;;;;;8.33;6.70;;;5.20;89.20;;;;;;5053282;28;20180;-76
2021/11/26 08:54:06;;;;;;;9.80;5.80;;;5.20;89.30;;;;;;5057696;28;20192;-76
2021/11/26 08:56:33;;;;;;;8.77;6.30;;;5.20;89.30;;;;;;5055521;28;20171;-76
2021/11/26 08:59:01;;;;;;;8.60;5.77;;;5.30;89.60;;;;;;5053081;28;20657;-76
2021/11/26 09:01:33;;;;;;;8.37;6.43;;;5.20;89.70;;;;;;5050902;28;20211;-76
2021/11/26 09:03:59;;;;;;;6.67;5.53;;;5.20;90.10;;;;;;5049483;28;20727;-76
2021/11/26 09:06:25;;;;;;;9.27;6.03;;;5.20;90.70;;;;;;5050879;28;20236;-76
2021/11/26 09:08:51;;;;;;;9.57;6.30;;;5.30;90.70;;;;;;5052703;28;20175;-76
2021/11/26 09:11:17;;;;;;;8.87;6.40;;;5.30;90.90;;;;;;5054289;28;20186;-76
2021/11/26 09:13:43;;;;;;;5.73;5.20;;;5.40;91.00;;;;;;5051247;28;20258;-76
2021/11/26 09:16:09;;;;;;;6.77;5.30;;;5.50;90.90;;;;;;5051983;28;20183;-76
2021/11/26 09:18:35;;;;;;;7.93;5.67;;;5.50;89.80;;;;;;5050019;28;20834;-76
2021/11/26 09:21:02;;;;;;;7.53;6.20;;;5.60;90.20;;;;;;5050890;28;20294;-76
2021/11/26 09:23:28;;;;;;;6.53;5.47;;;5.70;90.20;;;;;;5050654;28;21028;-76
2021/11/26 09:25:55;;;;;;;7.23;5.87;;;5.80;89.70;;;;;;5050202;28;20288;-76
2021/11/26 09:28:21;;;;;;;7.23;6.23;;;5.80;89.30;;;;;;5051283;28;20570;-76
2021/11/26 09:30:48;;;;;;;8.03;6.33;;;5.90;89.60;;;;;;5044724;28;20543;-76
2021/11/26 09:33:16;;;;;;;9.03;5.80;;;6.00;89.30;;;;;;5052220;28;20659;-76
2021/11/26 09:35:41;;;;;;;6.33;5.67;;;6.10;89.10;;;;;;5049863;28;20175;-76
2021/11/26 09:38:07;;;;;;;8.37;6.10;;;6.30;88.70;;;;;;5047735;28;20201;-76
2021/11/26 09:40:33;;;;;;;6.20;5.40;;;6.40;88.30;;;;;;5044505;28;20580;-76
2021/11/26 09:43:00;;;;;;;11.07;6.17;;;6.50;88.10;;;;;;5044160;28;20183;-76
2021/11/26 09:45:27;;;;;;;9.50;5.87;;;6.50;87.70;;;;;;5045266;28;21671;-76
2021/11/26 09:47:54;;;;;;;7.93;5.87;;;6.60;87.70;;;;;;5045849;28;20192;-76
2021/11/26 09:50:23;;;;;;;7.90;5.93;;;6.70;87.40;;;;;;5047211;28;20602;-76
2021/11/26 09:52:50;;;;;;;11.27;6.50;;;6.80;86.80;;;;;;5042775;28;20183;-76
2021/11/26 09:55:18;;;;;;;9.63;6.30;;;6.80;86.90;;;;;;5049869;28;20183;-76
2021/11/26 09:57:44;;;;;;;6.93;5.40;;;6.90;86.70;;;;;;5050554;28;20195;-77
2021/11/26 10:00:15;;;;;;;6.87;5.77;;;6.90;86.40;;;;;;5048465;28;20194;-76
2021/11/26 10:02:51;;;;;;;7.03;5.40;;;7.10;86.80;;;;;;5047101;28;20215;-76
2021/11/26 10:05:17;;;;;;;8.13;6.17;;;7.30;86.70;;;;;;5050724;28;20187;-76
2021/11/26 10:07:48;;;;;;;9.00;5.97;;;7.40;85.80;;;;;;5050186;28;20180;-77
2021/11/26 10:10:18;;;;;;;7.67;6.27;;;7.50;85.40;;;;;;5050146;28;20179;-78
2021/11/26 10:12:44;;;;;;;7.60;5.93;;;7.70;85.20;;;;;;5053713;28;20233;-77
2021/11/26 10:15:10;;;;;;;6.33;5.57;;;7.80;84.20;;;;;;5051586;28;20734;-75
2021/11/26 10:17:36;;;;;;;5.87;5.27;;;8.10;82.80;;;;;;5049926;28;21855;-76
2021/11/26 10:20:08;;;;;;;6.27;5.30;;;8.20;82.10;;;;;;5055434;28;20184;-76
2021/11/26 10:22:41;;;;;;;10.43;5.13;;;8.30;82.70;;;;;;5047028;28;20584;-77
2021/11/26 10:25:25;;;;;;;5.90;5.27;;;8.40;82.10;;;;;;5046097;28;20615;-77
2021/11/26 10:27:57;;;;;;;6.10;5.23;;;8.50;81.20;;;;;;5049429;28;20211;-76
2021/11/26 10:30:44;;;;;;;5.60;4.73;;;8.50;81.50;;;;;;5052619;28;20706;-76
2021/11/26 10:33:21;;;;;;;5.70;5.07;;;8.60;81.20;;;;;;5048839;28;20218;-75
2021/11/26 10:35:51;;;;;;;6.17;4.47;;;8.70;81.30;;;;;;5045944;28;20650;-75
2021/11/26 10:38:26;;;;;;;6.87;5.17;;;8.80;79.70;;;;;;5046220;28;20191;-77
2021/11/26 10:41:09;;;;;;;7.17;5.37;;;8.70;80.10;;;;;;5047855;28;20294;-75
2021/11/26 10:43:42;;;;;;;6.80;4.63;;;8.80;79.70;;;;;;5049907;28;20183;-76
2021/11/26 10:46:39;;;;;;;6.30;5.43;;;8.70;79.90;;;;;;5049287;28;20184;-77
2021/11/26 10:58:21;;;;;;;6.67;4.60;;;8.30;79.80;;;;;;5050586;28;20195;-76
2021/11/26 11:00:47;;;;;;;4.57;4.27;;;8.10;80.30;;;;;;5048937;28;20788;-76
2021/11/26 11:03:14;;;;;;;7.77;5.50;;;7.90;80.80;;;;;;5044494;28;20223;-76
2021/11/26 11:05:40;;;;;;;5.07;4.67;;;7.90;80.80;;;;;;5046588;28;20715;-76
2021/11/26 11:08:18;;;;;;;7.20;5.30;;;7.80;81.00;;;;;;5049475;28;20207;-76
2021/11/26 11:10:44;;;;;;;5.20;4.77;;;7.70;81.00;;;;;;5051185;28;20195;-76
2021/11/26 11:13:14;;;;;;;5.60;5.13;;;7.60;81.10;;;;;;5050338;28;20569;-76
2021/11/26 11:15:41;;;;;;;5.77;5.20;;;7.40;81.50;;;;;;5050203;28;20709;-76
2021/11/26 11:18:08;;;;;;;6.57;4.70;;;7.30;81.60;;;;;;5040800;28;20194;-75
2021/11/26 11:20:35;;;;;;;4.93;4.60;;;7.30;82.00;;;;;;5047086;28;20656;-75
2021/11/26 11:23:01;;;;;;;6.13;4.73;;;7.30;82.30;;;;;;5049695;28;20187;-75
2021/11/26 11:25:29;;;;;;;7.13;5.37;;;7.30;82.10;;;;;;5049699;28;20602;-75
2021/11/26 11:28:03;;;;;;;6.53;5.10;;;7.20;82.10;;;;;;5050485;28;20289;-75
2021/11/26 11:30:29;;;;;;;5.30;4.80;;;7.20;82.50;;;;;;5047070;28;20223;-76
2021/11/26 11:32:56;;;;;;;4.90;4.50;;;7.20;82.50;;;;;;5048310;28;20176;-76
2021/11/26 11:35:23;;;;;;;5.43;4.80;;;7.10;82.40;;;;;;5049468;28;20187;-75
2021/11/26 11:37:52;;;;;;;5.47;4.60;;;7.10;82.30;;;;;;5054740;28;20180;-76
2021/11/26 11:40:59;;;;;;;5.50;5.00;;;7.00;82.40;;;;;;5047834;28;20187;-76
2021/11/26 11:43:25;;;;;;;8.30;5.13;;;6.90;82.70;;;;;;5027278;28;20246;-76
2021/11/26 11:46:00;;;;;;;5.40;4.93;;;6.90;82.80;;;;;;5028564;28;21016;-77
2021/11/26 11:48:27;;;;;;;3.70;3.40;;;7.00;82.80;;;;;;5034845;28;20838;-75
2021/11/26 11:50:53;;;;;;;9.03;4.80;;;7.00;82.70;;;;;;5027639;28;20293;-77
2021/11/26 11:53:30;;;;;;;5.57;4.17;;;7.00;82.80;;;;;;5033178;28;20687;-76
2021/11/26 11:56:07;;;;;;;4.90;4.50;;;7.00;82.90;;;;;;5030179;28;20630;-76
2021/11/26 11:59:01;;;;;;;4.60;4.20;;;7.10;83.10;;;;;;5026772;28;20188;-76
2021/11/26 12:01:32;;;;;;;4.60;4.20;;;7.30;83.10;;;;;;5028852;28;20220;-76
2021/11/26 12:03:59;;;;;;;5.30;4.77;;;7.60;83.30;;;;;;5032406;28;20188;-76
2021/11/26 12:06:41;;;;;;;5.57;4.90;;;8.20;82.70;;;;;;5026805;28;20192;-76
2021/11/26 12:09:07;;;;;;;6.30;5.70;;;8.70;79.70;;;;;;5033757;28;20191;-77
2021/11/26 12:11:35;;;;;;;6.30;5.00;;;9.00;79.70;;;;;;5026830;28;20246;-77
2021/11/26 12:14:05;;;;;;;7.50;5.03;;;9.20;79.20;;;;;;5030083;28;20188;-77
2021/11/26 12:16:46;;;;;;;7.53;4.87;;;9.30;78.10;;;;;;5026911;28;20745;-77
2021/11/26 12:19:24;;;;;;;5.93;5.37;;;9.20;77.30;;;;;;5044285;28;20194;-77
2021/11/26 12:21:53;;;;;;;6.10;5.50;;;9.10;77.40;;;;;;5053794;28;20289;-75
2021/11/26 12:24:23;;;;;;;9.47;6.33;;;8.90;77.50;;;;;;5053068;28;20187;-74
2021/11/26 12:26:57;;;;;;;6.57;5.70;;;8.60;77.70;;;;;;5050150;28;20178;-77
2021/11/26 12:29:34;;;;;;;5.63;5.13;;;8.50;78.10;;;;;;5054113;28;20181;-76
2021/11/26 12:32:14;;;;;;;4.60;4.30;;;8.40;78.70;;;;;;5052228;28;20253;-77
2021/11/26 12:34:48;;;;;;;5.73;4.53;;;8.30;79.20;;;;;;5043443;28;20175;-75
2021/11/26 12:37:22;;;;;;;4.17;3.87;;;8.20;79.30;;;;;;5043860;28;20182;-75
2021/11/26 12:39:49;;;;;;;4.53;4.07;;;8.20;79.40;;;;;;5047095;28;20187;-75
2021/11/26 12:42:18;;;;;;;5.37;4.87;;;8.10;79.50;;;;;;5043969;28;20215;-78
2021/11/26 12:45:06;;;;;;;4.93;4.33;;;8.10;79.60;;;;;;5042057;28;20199;-77
2021/11/26 12:47:35;;;;;;;7.83;4.63;;;8.10;79.80;;;;;;5047129;28;20183;-75
2021/11/26 12:53:09;;;;;;;4.67;4.27;;;8.00;80.00;;;;;;5047403;28;20197;-75
2021/11/26 12:55:37;;;;;;;4.87;4.37;;;8.00;80.60;;;;;;5044896;28;20187;-76
2021/11/26 12:58:04;;;;;;;5.87;4.63;;;8.20;81.20;;;;;;5045287;28;20209;-75
2021/11/26 13:00:32;;;;;;;4.70;4.30;;;8.30;80.60;;;;;;5046230;28;20263;-75
2021/11/26 13:03:09;;;;;;;5.03;4.63;;;8.40;80.00;;;;;;5053697;28;20183;-75
2021/11/26 13:05:36;;;;;;;7.87;4.70;;;8.50;79.60;;;;;;5042743;28;20203;-74
2021/11/26 13:08:03;;;;;;;6.33;5.73;;;8.40;79.30;;;;;;5046726;28;20904;-76
2021/11/26 13:10:29;;;;;;;5.87;5.23;;;8.30;79.50;;;;;;5044812;28;20198;-75